Skip to main content Skip to accessibility
This website is not compatible with your web browser. You should install a newer browser. If you live in Jersey and need help upgrading call the States of Jersey web team on 440099.
gov.je

L'înformâtion et les sèrvices publyis pouor I'Île dé Jèrri

Local METARs

METAR EGJJ 240920Z 28004KT 250V320 6000 VCFG FEW000 BKN019 15/14 Q1027 TEMPO 3000

METAR EGJB 240920Z VRB03KT 9999 FEW008 BKN014 15/13 Q1027

METAR EGJA 240920Z 02003KT 9999 FEW011 BKN015 14/13 Q1027

METAR LFRD 240930Z AUTO 07003KT 020V130 9999 OVC007 16/14 Q1027 BECMG SCT020

METAR LFRC 240930Z AUTO VRB02KT 9999 OVC007 15/13 Q1027 BECMG BKN016

 

 

 

​Times are in Greenwich Mean Time (GMT) and not British Summer Time (BST). They will be one hour different during BST.

Back to top
rating button